sensor_id;sensor_type;location;lat;lon;timestamp;pressure;altitude;pressure_sealevel;temperature;humidity
49979;BME280;35869;50.990;6.962;2023-02-19T00:03:15;101554.44;;;10.12;100.00
49979;BME280;35869;50.990;6.962;2023-02-19T00:08:15;101552.28;;;10.28;100.00
49979;BME280;35869;50.990;6.962;2023-02-19T00:13:15;101545.44;;;10.25;100.00
49979;BME280;35869;50.990;6.962;2023-02-19T00:18:16;101542.03;;;10.23;100.00
49979;BME280;35869;50.990;6.962;2023-02-19T00:23:16;101536.66;;;10.29;100.00
49979;BME280;35869;50.990;6.962;2023-02-19T00:28:16;101542.19;;;10.17;100.00
49979;BME280;35869;50.990;6.962;2023-02-19T00:33:16;101545.41;;;10.27;100.00
49979;BME280;35869;50.990;6.962;2023-02-19T00:38:16;101535.03;;;10.25;100.00
49979;BME280;35869;50.990;6.962;2023-02-19T00:43:16;101526.59;;;10.17;100.00
49979;BME280;35869;50.990;6.962;2023-02-19T00:48:17;101525.97;;;10.09;100.00
49979;BME280;35869;50.990;6.962;2023-02-19T00:53:17;101517.94;;;10.17;100.00
49979;BME280;35869;50.990;6.962;2023-02-19T00:58:17;101516.38;;;10.11;100.00
49979;BME280;35869;50.990;6.962;2023-02-19T01:03:17;101517.34;;;10.08;100.00
49979;BME280;35869;50.990;6.962;2023-02-19T01:08:18;101517.06;;;10.18;100.00
49979;BME280;35869;50.990;6.962;2023-02-19T01:13:18;101509.97;;;10.23;100.00
49979;BME280;35869;50.990;6.962;2023-02-19T01:18:19;101518.53;;;10.28;100.00
49979;BME280;35869;50.990;6.962;2023-02-19T01:23:19;101519.25;;;10.31;100.00
49979;BME280;35869;50.990;6.962;2023-02-19T01:28:19;101512.88;;;10.12;100.00
49979;BME280;35869;50.990;6.962;2023-02-19T01:33:21;101505.16;;;10.10;100.00
49979;BME280;35869;50.990;6.962;2023-02-19T01:38:21;101511.44;;;10.02;100.00
49979;BME280;35869;50.990;6.962;2023-02-19T01:43:22;101505.50;;;9.98;100.00
49979;BME280;35869;50.990;6.962;2023-02-19T01:48:26;101505.50;;;9.98;100.00
49979;BME280;35869;50.990;6.962;2023-02-19T01:53:33;101506.19;;;10.05;100.00
49979;BME280;35869;50.990;6.962;2023-02-19T01:58:36;101489.38;;;10.17;100.00
49979;BME280;35869;50.990;6.962;2023-02-19T02:03:39;101504.16;;;10.14;100.00
49979;BME280;35869;50.990;6.962;2023-02-19T02:08:40;101500.63;;;10.17;100.00
49979;BME280;35869;50.990;6.962;2023-02-19T02:13:41;101501.41;;;10.19;100.00
49979;BME280;35869;50.990;6.962;2023-02-19T02:19:10;101506.84;;;10.11;100.00
49979;BME280;35869;50.990;6.962;2023-02-19T02:24:24;101502.63;;;10.07;100.00
49979;BME280;35869;50.990;6.962;2023-02-19T02:29:50;101510.41;;;10.07;100.00
49979;BME280;35869;50.990;6.962;2023-02-19T02:34:58;101493.00;;;10.11;100.00
49979;BME280;35869;50.990;6.962;2023-02-19T02:40:01;101495.97;;;9.99;100.00
49979;BME280;35869;50.990;6.962;2023-02-19T02:45:26;101489.09;;;9.96;100.00
49979;BME280;35869;50.990;6.962;2023-02-19T02:50:33;101494.03;;;10.05;100.00
49979;BME280;35869;50.990;6.962;2023-02-19T02:55:39;101498.91;;;10.16;100.00
49979;BME280;35869;50.990;6.962;2023-02-19T03:00:42;101493.19;;;10.05;100.00
49979;BME280;35869;50.990;6.962;2023-02-19T03:05:45;101501.06;;;10.02;100.00
49979;BME280;35869;50.990;6.962;2023-02-19T03:11:05;101515.63;;;10.07;100.00
49979;BME280;35869;50.990;6.962;2023-02-19T03:16:14;101514.03;;;10.02;100.00
49979;BME280;35869;50.990;6.962;2023-02-19T03:21:18;101509.44;;;10.11;100.00
49979;BME280;35869;50.990;6.962;2023-02-19T03:26:19;101526.47;;;10.22;100.00
49979;BME280;35869;50.990;6.962;2023-02-19T03:31:22;101518.03;;;10.13;100.00
49979;BME280;35869;50.990;6.962;2023-02-19T03:36:27;101523.38;;;10.09;100.00
49979;BME280;35869;50.990;6.962;2023-02-19T03:46:37;101527.72;;;10.08;100.00
49979;BME280;35869;50.990;6.962;2023-02-19T03:51:50;101540.97;;;9.99;100.00
49979;BME280;35869;50.990;6.962;2023-02-19T03:57:02;101543.38;;;10.05;100.00
49979;BME280;35869;50.990;6.962;2023-02-19T04:02:14;101549.25;;;10.12;100.00
49979;BME280;35869;50.990;6.962;2023-02-19T04:07:15;101557.28;;;10.04;100.00
49979;BME280;35869;50.990;6.962;2023-02-19T04:12:16;101559.16;;;9.99;100.00
49979;BME280;35869;50.990;6.962;2023-02-19T04:17:25;101569.53;;;9.99;100.00
49979;BME280;35869;50.990;6.962;2023-02-19T04:22:27;101576.19;;;10.09;100.00
49979;BME280;35869;50.990;6.962;2023-02-19T04:27:28;101569.47;;;10.01;100.00
49979;BME280;35869;50.990;6.962;2023-02-19T04:32:28;101585.66;;;10.10;100.00
49979;BME280;35869;50.990;6.962;2023-02-19T04:37:28;101595.34;;;10.05;100.00
49979;BME280;35869;50.990;6.962;2023-02-19T04:42:29;101601.88;;;9.87;100.00
49979;BME280;35869;50.990;6.962;2023-02-19T04:47:30;101604.44;;;9.89;100.00
49979;BME280;35869;50.990;6.962;2023-02-19T04:52:31;101607.75;;;9.94;100.00
49979;BME280;35869;50.990;6.962;2023-02-19T04:57:31;101604.44;;;9.89;100.00
49979;BME280;35869;50.990;6.962;2023-02-19T05:02:31;101630.72;;;9.77;100.00
49979;BME280;35869;50.990;6.962;2023-02-19T05:07:32;101615.94;;;9.79;100.00
49979;BME280;35869;50.990;6.962;2023-02-19T05:12:32;101619.78;;;9.98;100.00
49979;BME280;35869;50.990;6.962;2023-02-19T05:17:33;101622.53;;;9.92;100.00
49979;BME280;35869;50.990;6.962;2023-02-19T05:22:33;101627.97;;;9.83;100.00
49979;BME280;35869;50.990;6.962;2023-02-19T05:27:33;101633.38;;;9.75;100.00
49979;BME280;35869;50.990;6.962;2023-02-19T05:32:34;101639.41;;;9.76;100.00
49979;BME280;35869;50.990;6.962;2023-02-19T05:37:35;101658.66;;;9.69;100.00
49979;BME280;35869;50.990;6.962;2023-02-19T05:42:35;101659.28;;;9.77;100.00
49979;BME280;35869;50.990;6.962;2023-02-19T05:47:35;101674.22;;;9.69;100.00
49979;BME280;35869;50.990;6.962;2023-02-19T05:52:35;101662.28;;;9.61;100.00
49979;BME280;35869;50.990;6.962;2023-02-19T05:57:43;101687.25;;;9.66;100.00
49979;BME280;35869;50.990;6.962;2023-02-19T06:02:44;101688.25;;;9.61;100.00
49979;BME280;35869;50.990;6.962;2023-02-19T06:07:44;101696.84;;;9.64;100.00
49979;BME280;35869;50.990;6.962;2023-02-19T06:12:45;101694.28;;;9.62;100.00
49979;BME280;35869;50.990;6.962;2023-02-19T06:17:45;101698.94;;;9.48;100.00
49979;BME280;35869;50.990;6.962;2023-02-19T06:22:45;101701.97;;;9.65;100.00
49979;BME280;35869;50.990;6.962;2023-02-19T06:27:45;101705.72;;;9.53;100.00
49979;BME280;35869;50.990;6.962;2023-02-19T06:32:45;101719.75;;;9.46;100.00
49979;BME280;35869;50.990;6.962;2023-02-19T06:37:46;101711.88;;;9.49;100.00
49979;BME280;35869;50.990;6.962;2023-02-19T06:42:46;101718.06;;;9.45;100.00
49979;BME280;35869;50.990;6.962;2023-02-19T06:47:47;101732.06;;;9.37;100.00
49979;BME280;35869;50.990;6.962;2023-02-19T06:52:47;101730.31;;;9.37;100.00
49979;BME280;35869;50.990;6.962;2023-02-19T06:57:47;101731.88;;;9.46;100.00
49979;BME280;35869;50.990;6.962;2023-02-19T07:02:47;101747.63;;;9.37;100.00
49979;BME280;35869;50.990;6.962;2023-02-19T07:07:48;101748.38;;;9.42;100.00
49979;BME280;35869;50.990;6.962;2023-02-19T07:12:48;101768.25;;;9.44;100.00
49979;BME280;35869;50.990;6.962;2023-02-19T07:17:48;101778.94;;;9.29;100.00
49979;BME280;35869;50.990;6.962;2023-02-19T07:22:49;101784.16;;;9.29;100.00
49979;BME280;35869;50.990;6.962;2023-02-19T07:27:49;101792.81;;;9.28;100.00
49979;BME280;35869;50.990;6.962;2023-02-19T07:32:49;101790.09;;;9.34;100.00
49979;BME280;35869;50.990;6.962;2023-02-19T07:37:49;101804.94;;;9.26;100.00
49979;BME280;35869;50.990;6.962;2023-02-19T07:42:50;101819.53;;;9.33;100.00
49979;BME280;35869;50.990;6.962;2023-02-19T07:47:50;101827.75;;;9.12;100.00
49979;BME280;35869;50.990;6.962;2023-02-19T07:52:50;101830.97;;;9.23;100.00
49979;BME280;35869;50.990;6.962;2023-02-19T07:57:50;101838.72;;;9.24;100.00
49979;BME280;35869;50.990;6.962;2023-02-19T08:02:51;101852.44;;;9.29;100.00
49979;BME280;35869;50.990;6.962;2023-02-19T08:07:52;101847.16;;;9.34;100.00
49979;BME280;35869;50.990;6.962;2023-02-19T08:12:59;101860.31;;;9.25;100.00
49979;BME280;35869;50.990;6.962;2023-02-19T08:17:59;101870.69;;;9.25;100.00
49979;BME280;35869;50.990;6.962;2023-02-19T08:23:00;101873.41;;;9.19;100.00
49979;BME280;35869;50.990;6.962;2023-02-19T08:28:00;101874.09;;;9.28;100.00
49979;BME280;35869;50.990;6.962;2023-02-19T08:33:01;101886.97;;;9.31;100.00
49979;BME280;35869;50.990;6.962;2023-02-19T08:38:04;101890.50;;;9.29;100.00
49979;BME280;35869;50.990;6.962;2023-02-19T08:43:09;101891.28;;;9.34;100.00
49979;BME280;35869;50.990;6.962;2023-02-19T08:48:10;101902.47;;;9.36;100.00
49979;BME280;35869;50.990;6.962;2023-02-19T08:53:10;101897.47;;;9.25;100.00
49979;BME280;35869;50.990;6.962;2023-02-19T08:58:11;101906.88;;;9.31;100.00
49979;BME280;35869;50.990;6.962;2023-02-19T09:03:11;101911.31;;;9.27;100.00
49979;BME280;35869;50.990;6.962;2023-02-19T09:08:11;101913.66;;;9.40;100.00
49979;BME280;35869;50.990;6.962;2023-02-19T09:13:11;101906.38;;;9.55;100.00
49979;BME280;35869;50.990;6.962;2023-02-19T09:18:12;101917.91;;;9.42;100.00
49979;BME280;35869;50.990;6.962;2023-02-19T09:23:12;101928.72;;;9.64;100.00
49979;BME280;35869;50.990;6.962;2023-02-19T09:28:12;101929.69;;;9.58;100.00
49979;BME280;35869;50.990;6.962;2023-02-19T09:33:12;101934.19;;;9.50;100.00
49979;BME280;35869;50.990;6.962;2023-02-19T09:38:12;101954.88;;;9.53;100.00
49979;BME280;35869;50.990;6.962;2023-02-19T09:43:18;101946.88;;;9.64;100.00
49979;BME280;35869;50.990;6.962;2023-02-19T09:48:19;101956.31;;;9.67;100.00
49979;BME280;35869;50.990;6.962;2023-02-19T09:53:23;101964.84;;;9.75;100.00
49979;BME280;35869;50.990;6.962;2023-02-19T09:58:27;101954.31;;;9.81;100.00
49979;BME280;35869;50.990;6.962;2023-02-19T10:03:32;101965.84;;;9.66;100.00
49979;BME280;35869;50.990;6.962;2023-02-19T10:08:35;101967.44;;;9.75;100.00
49979;BME280;35869;50.990;6.962;2023-02-19T10:13:41;101970.69;;;9.83;100.00
49979;BME280;35869;50.990;6.962;2023-02-19T10:18:43;101980.28;;;9.81;100.00
49979;BME280;35869;50.990;6.962;2023-02-19T10:23:45;101995.91;;;9.78;100.00
49979;BME280;35869;50.990;6.962;2023-02-19T10:28:46;102013.19;;;9.79;100.00
49979;BME280;35869;50.990;6.962;2023-02-19T10:33:51;102031.16;;;9.89;100.00
49979;BME280;35869;50.990;6.962;2023-02-19T10:38:52;102022.94;;;9.69;100.00
49979;BME280;35869;50.990;6.962;2023-02-19T10:48:59;102048.88;;;9.69;100.00
49979;BME280;35869;50.990;6.962;2023-02-19T10:54:24;102070.16;;;9.88;100.00
49979;BME280;35869;50.990;6.962;2023-02-19T10:59:27;102067.75;;;9.77;100.00
49979;BME280;35869;50.990;6.962;2023-02-19T11:04:30;102071.16;;;9.81;100.00
49979;BME280;35869;50.990;6.962;2023-02-19T11:09:38;102066.03;;;9.76;100.00
49979;BME280;35869;50.990;6.962;2023-02-19T11:14:43;102067.38;;;9.96;100.00
49979;BME280;35869;50.990;6.962;2023-02-19T11:19:44;102070.81;;;9.98;100.00
49979;BME280;35869;50.990;6.962;2023-02-19T11:24:49;102074.25;;;10.00;100.00
49979;BME280;35869;50.990;6.962;2023-02-19T11:29:50;102080.94;;;10.11;100.00
49979;BME280;35869;50.990;6.962;2023-02-19T11:34:51;102075.69;;;10.14;100.00
49979;BME280;35869;50.990;6.962;2023-02-19T11:39:52;102079.22;;;10.10;100.00
49979;BME280;35869;50.990;6.962;2023-02-19T12:00:54;102063.19;;;10.33;100.00
49979;BME280;35869;50.990;6.962;2023-02-19T12:11:22;102049.03;;;10.47;100.00
49979;BME280;35869;50.990;6.962;2023-02-19T12:16:41;102046.66;;;10.36;100.00
49979;BME280;35869;50.990;6.962;2023-02-19T12:48:15;102056.97;;;10.78;100.00
49979;BME280;35869;50.990;6.962;2023-02-19T12:53:27;102062.31;;;10.72;100.00
49979;BME280;35869;50.990;6.962;2023-02-19T12:58:45;102062.16;;;10.78;100.00
49979;BME280;35869;50.990;6.962;2023-02-19T13:09:32;102073.41;;;10.80;100.00
49979;BME280;35869;50.990;6.962;2023-02-19T13:14:38;102078.09;;;10.64;100.00
49979;BME280;35869;50.990;6.962;2023-02-19T13:19:41;102076.66;;;10.88;100.00
49979;BME280;35869;50.990;6.962;2023-02-19T13:24:44;102096.09;;;10.72;100.00
49979;BME280;35869;50.990;6.962;2023-02-19T13:40:30;102085.09;;;10.60;100.00
49979;BME280;35869;50.990;6.962;2023-02-19T13:45:39;102089.19;;;10.71;100.00
49979;BME280;35869;50.990;6.962;2023-02-19T13:50:41;102098.91;;;10.64;100.00
49979;BME280;35869;50.990;6.962;2023-02-19T14:00:49;102110.22;;;10.61;100.00
49979;BME280;35869;50.990;6.962;2023-02-19T14:05:59;102119.25;;;10.45;100.00
49979;BME280;35869;50.990;6.962;2023-02-19T14:10:59;102118.88;;;10.62;100.00
49979;BME280;35869;50.990;6.962;2023-02-19T14:15:59;102133.63;;;10.60;100.00
49979;BME280;35869;50.990;6.962;2023-02-19T14:21:25;102143.19;;;10.59;100.00
49979;BME280;35869;50.990;6.962;2023-02-19T14:26:26;102151.06;;;10.55;100.00
49979;BME280;35869;50.990;6.962;2023-02-19T14:31:30;102158.22;;;10.45;100.00
49979;BME280;35869;50.990;6.962;2023-02-19T14:36:46;102163.31;;;10.51;100.00
49979;BME280;35869;50.990;6.962;2023-02-19T14:41:50;102180.06;;;10.36;100.00
49979;BME280;35869;50.990;6.962;2023-02-19T14:47:07;102186.91;;;10.40;100.00
49979;BME280;35869;50.990;6.962;2023-02-19T14:52:29;102185.25;;;10.38;100.00
49979;BME280;35869;50.990;6.962;2023-02-19T14:57:45;102181.84;;;10.34;100.00
49979;BME280;35869;50.990;6.962;2023-02-19T15:02:48;102187.13;;;10.30;100.00
49979;BME280;35869;50.990;6.962;2023-02-19T15:07:49;102183.13;;;10.10;100.00
49979;BME280;35869;50.990;6.962;2023-02-19T15:12:53;102181.44;;;10.08;100.00
49979;BME280;35869;50.990;6.962;2023-02-19T15:17:56;102173.72;;;10.05;100.00
49979;BME280;35869;50.990;6.962;2023-02-19T15:22:58;102149.47;;;10.04;100.00
49979;BME280;35869;50.990;6.962;2023-02-19T15:33:26;102137.75;;;9.83;100.00
49979;BME280;35869;50.990;6.962;2023-02-19T15:38:26;102137.53;;;9.94;100.00
49979;BME280;35869;50.990;6.962;2023-02-19T15:43:29;102127.31;;;9.86;100.00
49979;BME280;35869;50.990;6.962;2023-02-19T15:48:41;102121.78;;;9.57;100.00
49979;BME280;35869;50.990;6.962;2023-02-19T15:53:47;102114.94;;;9.53;100.00
49979;BME280;35869;50.990;6.962;2023-02-19T16:03:55;102119.88;;;9.68;100.00
49979;BME280;35869;50.990;6.962;2023-02-19T16:09:01;102122.47;;;9.67;100.00
49979;BME280;35869;50.990;6.962;2023-02-19T16:14:22;102130.22;;;9.70;100.00
49979;BME280;35869;50.990;6.962;2023-02-19T16:19:24;102139.78;;;9.68;100.00
49979;BME280;35869;50.990;6.962;2023-02-19T16:24:31;102146.56;;;9.75;100.00
49979;BME280;35869;50.990;6.962;2023-02-19T16:29:33;102151.25;;;9.54;100.00
49979;BME280;35869;50.990;6.962;2023-02-19T16:34:42;102158.50;;;9.34;100.00
49979;BME280;35869;50.990;6.962;2023-02-19T16:39:42;102164.31;;;9.48;100.00
49979;BME280;35869;50.990;6.962;2023-02-19T16:44:43;102166.13;;;9.43;100.00
49979;BME280;35869;50.990;6.962;2023-02-19T16:49:43;102168.94;;;9.31;100.00
49979;BME280;35869;50.990;6.962;2023-02-19T16:54:43;102187.06;;;9.34;100.00
49979;BME280;35869;50.990;6.962;2023-02-19T16:59:44;102201.88;;;9.26;100.00
49979;BME280;35869;50.990;6.962;2023-02-19T17:04:45;102204.44;;;9.29;100.00
49979;BME280;35869;50.990;6.962;2023-02-19T17:09:45;102213.34;;;9.11;100.00
49979;BME280;35869;50.990;6.962;2023-02-19T17:14:46;102228.63;;;9.29;100.00
49979;BME280;35869;50.990;6.962;2023-02-19T17:19:46;102240.94;;;9.17;100.00
49979;BME280;35869;50.990;6.962;2023-02-19T17:24:46;102250.47;;;9.13;100.00
49979;BME280;35869;50.990;6.962;2023-02-19T17:29:46;102265.31;;;9.03;100.00
49979;BME280;35869;50.990;6.962;2023-02-19T17:34:47;102276.63;;;8.98;100.00
49979;BME280;35869;50.990;6.962;2023-02-19T17:39:47;102278.31;;;9.00;100.00
49979;BME280;35869;50.990;6.962;2023-02-19T17:44:48;102287.75;;;9.06;100.00
49979;BME280;35869;50.990;6.962;2023-02-19T17:49:48;102285.44;;;8.83;100.00
49979;BME280;35869;50.990;6.962;2023-02-19T17:54:48;102288.94;;;8.80;100.00
49979;BME280;35869;50.990;6.962;2023-02-19T17:59:48;102304.53;;;8.76;100.00
49979;BME280;35869;50.990;6.962;2023-02-19T18:04:48;102303.63;;;8.81;100.00
49979;BME280;35869;50.990;6.962;2023-02-19T18:09:49;102312.34;;;8.73;100.00
49979;BME280;35869;50.990;6.962;2023-02-19T18:14:49;102310.59;;;8.75;100.00
49979;BME280;35869;50.990;6.962;2023-02-19T18:19:49;102304.69;;;8.64;100.00
49979;BME280;35869;50.990;6.962;2023-02-19T18:24:52;102307.22;;;8.67;100.00
49979;BME280;35869;50.990;6.962;2023-02-19T18:29:54;102315.13;;;8.56;100.00
49979;BME280;35869;50.990;6.962;2023-02-19T18:34:56;102316.00;;;8.57;100.00
49979;BME280;35869;50.990;6.962;2023-02-19T18:39:57;102322.06;;;8.52;100.00
49979;BME280;35869;50.990;6.962;2023-02-19T18:44:58;102322.13;;;8.46;100.00
49979;BME280;35869;50.990;6.962;2023-02-19T18:49:58;102322.22;;;8.37;100.00
49979;BME280;35869;50.990;6.962;2023-02-19T18:54:59;102322.97;;;8.48;100.00
49979;BME280;35869;50.990;6.962;2023-02-19T18:59:59;102338.66;;;8.33;100.00
49979;BME280;35869;50.990;6.962;2023-02-19T19:04:59;102344.69;;;8.34;100.00
49979;BME280;35869;50.990;6.962;2023-02-19T19:09:59;102347.25;;;8.38;100.00
49979;BME280;35869;50.990;6.962;2023-02-19T19:14:59;102355.91;;;8.34;100.00
49979;BME280;35869;50.990;6.962;2023-02-19T19:20:00;102353.41;;;8.22;100.00
49979;BME280;35869;50.990;6.962;2023-02-19T19:25:00;102350.84;;;8.19;100.00
49979;BME280;35869;50.990;6.962;2023-02-19T19:30:00;102364.63;;;8.24;100.00
49979;BME280;35869;50.990;6.962;2023-02-19T19:35:01;102373.31;;;8.14;100.00
49979;BME280;35869;50.990;6.962;2023-02-19T19:40:01;102371.59;;;8.16;100.00
49979;BME280;35869;50.990;6.962;2023-02-19T19:45:03;102384.53;;;8.16;100.00
49979;BME280;35869;50.990;6.962;2023-02-19T19:50:03;102371.69;;;8.00;100.00
49979;BME280;35869;50.990;6.962;2023-02-19T19:55:04;102367.31;;;8.10;100.00
49979;BME280;35869;50.990;6.962;2023-02-19T20:00:05;102364.81;;;7.96;100.00
49979;BME280;35869;50.990;6.962;2023-02-19T20:05:06;102367.34;;;8.02;100.00
49979;BME280;35869;50.990;6.962;2023-02-19T20:10:06;102380.44;;;7.84;100.00
49979;BME280;35869;50.990;6.962;2023-02-19T20:15:08;102389.09;;;7.80;100.00
49979;BME280;35869;50.990;6.962;2023-02-19T20:20:08;102396.00;;;7.81;98.77
49979;BME280;35869;50.990;6.962;2023-02-19T20:25:09;102390.94;;;7.58;100.00
49979;BME280;35869;50.990;6.962;2023-02-19T20:30:12;102401.34;;;7.51;100.00
49979;BME280;35869;50.990;6.962;2023-02-19T20:35:14;102392.66;;;7.61;100.00
49979;BME280;35869;50.990;6.962;2023-02-19T20:40:15;102402.19;;;7.51;100.00
49979;BME280;35869;50.990;6.962;2023-02-19T20:45:16;102415.94;;;7.61;99.28
49979;BME280;35869;50.990;6.962;2023-02-19T20:50:16;102409.88;;;7.66;100.00
49979;BME280;35869;50.990;6.962;2023-02-19T20:55:16;102413.34;;;7.61;100.00
49979;BME280;35869;50.990;6.962;2023-02-19T21:00:17;102410.81;;;7.50;100.00
49979;BME280;35869;50.990;6.962;2023-02-19T21:05:18;102416.88;;;7.38;100.00
49979;BME280;35869;50.990;6.962;2023-02-19T21:10:18;102423.81;;;7.39;100.00
49979;BME280;35869;50.990;6.962;2023-02-19T21:15:18;102435.00;;;7.32;100.00
49979;BME280;35869;50.990;6.962;2023-02-19T21:20:19;102437.63;;;7.29;100.00
49979;BME280;35869;50.990;6.962;2023-02-19T21:25:19;102432.50;;;7.08;100.00
49979;BME280;35869;50.990;6.962;2023-02-19T21:30:19;102431.63;;;7.16;100.00
49979;BME280;35869;50.990;6.962;2023-02-19T21:35:20;102453.22;;;6.88;100.00
49979;BME280;35869;50.990;6.962;2023-02-19T21:40:20;102443.75;;;6.82;100.00
49979;BME280;35869;50.990;6.962;2023-02-19T21:45:20;102444.59;;;6.90;100.00
49979;BME280;35869;50.990;6.962;2023-02-19T21:50:21;102444.63;;;6.75;100.00
49979;BME280;35869;50.990;6.962;2023-02-19T21:55:21;102441.19;;;6.72;100.00
49979;BME280;35869;50.990;6.962;2023-02-19T22:00:22;102435.13;;;6.62;100.00
49979;BME280;35869;50.990;6.962;2023-02-19T22:05:25;102438.59;;;6.62;100.00
49979;BME280;35869;50.990;6.962;2023-02-19T22:10:25;102429.97;;;6.62;100.00
49979;BME280;35869;50.990;6.962;2023-02-19T22:15:25;102424.81;;;6.53;100.00
49979;BME280;35869;50.990;6.962;2023-02-19T22:20:26;102423.13;;;6.46;100.00
49979;BME280;35869;50.990;6.962;2023-02-19T22:25:26;102438.59;;;6.46;100.00
49979;BME280;35869;50.990;6.962;2023-02-19T22:30:26;102447.19;;;6.37;100.00
49979;BME280;35869;50.990;6.962;2023-02-19T22:35:26;102452.34;;;6.31;100.00
49979;BME280;35869;50.990;6.962;2023-02-19T22:40:26;102452.34;;;6.31;100.00
49979;BME280;35869;50.990;6.962;2023-02-19T22:45:27;102442.88;;;6.31;100.00
49979;BME280;35869;50.990;6.962;2023-02-19T22:50:27;102435.97;;;6.27;100.00
49979;BME280;35869;50.990;6.962;2023-02-19T22:55:27;102432.56;;;6.22;100.00
49979;BME280;35869;50.990;6.962;2023-02-19T23:00:27;102432.53;;;6.19;100.00
49979;BME280;35869;50.990;6.962;2023-02-19T23:05:27;102439.41;;;6.14;100.00
49979;BME280;35869;50.990;6.962;2023-02-19T23:10:28;102434.22;;;6.03;100.00
49979;BME280;35869;50.990;6.962;2023-02-19T23:15:28;102437.69;;;6.01;100.00
49979;BME280;35869;50.990;6.962;2023-02-19T23:20:28;102433.34;;;5.97;100.00
49979;BME280;35869;50.990;6.962;2023-02-19T23:25:29;102426.50;;;5.93;100.00
49979;BME280;35869;50.990;6.962;2023-02-19T23:30:29;102428.16;;;5.83;100.00
49979;BME280;35869;50.990;6.962;2023-02-19T23:35:29;102417.81;;;5.78;100.00
49979;BME280;35869;50.990;6.962;2023-02-19T23:40:29;102415.22;;;5.75;100.00
49979;BME280;35869;50.990;6.962;2023-02-19T23:45:29;102410.03;;;5.66;100.00
49979;BME280;35869;50.990;6.962;2023-02-19T23:50:30;102408.28;;;5.62;100.00
49979;BME280;35869;50.990;6.962;2023-02-19T23:55:30;102410.00;;;5.54;100.00
